Weather at Cade Auxiliary Army Airfield [CLOSED]

Public forecast

Using degrees Fahrenheit for public forecast. Weather courtesy of forecast.io.

Closest aviation weather report (METAR) to Cade Auxiliary Army Airfield

Report is more than 6 hours old.

Closest report is Randolph Air Force Base, 4.5 nm (8.3 km) ENE.

2024/06/24 05:55 (retrieved 1 day ago)

KRND 240555Z AUTO 00000KT 10SM FEW049 27/23 A2993 RMK AO2 SLP125 T02680234 10342 20268 403530215 51009

Closest aviation forecast (TAF) to Cade Auxiliary Army Airfield

Forecast is more than 12 hours old.

Closest forecast is Randolph Air Force Base, 4.5 nm (8.3 km) ENE.

2024/06/24 16:58 (retrieved 15 hours ago)

TAF KRND 241600Z 2416/2522 12012KT 9999 FEW020 SCT025 BKN040 QNH2987INS BECMG 2420/2421 12012KT 9999 SCT050 QNH2983INS BECMG 2504/2505 14010KT 9999 BKN025 OVC040 QNH2989INS BECMG 2511/2512 VRB06KT 4800 BR OVC007 QNH2992INS BECMG 2514/2515 15009KT 8000 BR BKN012 OVC020 QNH2994INS BECMG 2517/2518 16012KT 9999 NSW FEW030 SCT050 QNH2984INS TX35/2422Z TN25/2512Z LAST NO AMDS AFT 2500 NEXT 2510